createdAt,value
2022-08-29T00:03:08.461Z,20.51
2022-08-29T00:08:11.834Z,20.46
2022-08-29T00:13:15.459Z,20.43
2022-08-29T00:18:20.620Z,20.47
2022-08-29T00:23:23.296Z,20.46
2022-08-29T00:28:25.919Z,20.39
2022-08-29T00:33:28.828Z,20.39
2022-08-29T00:38:31.629Z,20.32
2022-08-29T00:43:37.051Z,20.29
2022-08-29T00:48:41.325Z,20.25
2022-08-29T00:53:46.959Z,20.31
2022-08-29T00:59:01.261Z,20.28
2022-08-29T01:04:05.217Z,20.31
2022-08-29T01:09:12.753Z,20.23
2022-08-29T01:14:17.911Z,20.16
2022-08-29T01:19:27.928Z,19.97
2022-08-29T01:24:34.706Z,20.20
2022-08-29T01:29:37.366Z,20.08
2022-08-29T01:34:41.946Z,19.96
2022-08-29T01:39:45.849Z,19.81
2022-08-29T01:44:55.459Z,19.74
2022-08-29T01:49:58.909Z,19.47
2022-08-29T01:55:01.677Z,19.47
2022-08-29T02:00:08.521Z,19.30
2022-08-29T02:05:11.627Z,19.24
2022-08-29T02:10:14.304Z,18.94
2022-08-29T02:15:19.008Z,18.64
2022-08-29T02:20:21.683Z,18.71
2022-08-29T02:25:42.382Z,18.67
2022-08-29T02:30:49.916Z,18.68
2022-08-29T02:35:59.505Z,18.82
2022-08-29T02:41:03.104Z,18.69
2022-08-29T02:46:06.138Z,18.86
2022-08-29T02:51:08.953Z,19.06
2022-08-29T02:56:14.311Z,19.11
2022-08-29T03:01:20.661Z,19.17
2022-08-29T03:06:23.992Z,19.21
2022-08-29T03:11:28.635Z,19.22
2022-08-29T03:16:31.470Z,19.34
2022-08-29T03:21:34.164Z,19.45
2022-08-29T03:26:37.877Z,19.52
2022-08-29T03:31:40.575Z,19.52
2022-08-29T03:36:43.312Z,19.77
2022-08-29T03:41:46.163Z,19.97
2022-08-29T03:46:49.035Z,20.00
2022-08-29T03:51:52.058Z,19.67
2022-08-29T03:56:55.834Z,19.53
2022-08-29T04:01:58.785Z,19.68
2022-08-29T04:07:02.733Z,19.40
2022-08-29T04:12:05.578Z,19.60
2022-08-29T04:17:10.379Z,19.97
2022-08-29T04:22:13.863Z,20.24
2022-08-29T04:27:17.684Z,20.43
2022-08-29T04:32:20.719Z,20.63
2022-08-29T04:37:24.007Z,20.66
2022-08-29T04:42:26.712Z,20.84
2022-08-29T04:47:29.344Z,21.12
2022-08-29T04:52:32.578Z,21.72
2022-08-29T04:57:36.657Z,21.79
2022-08-29T05:02:40.519Z,21.86
2022-08-29T05:07:43.812Z,21.93
2022-08-29T05:12:46.882Z,22.48
2022-08-29T05:17:49.541Z,23.10
2022-08-29T05:22:52.457Z,23.28
2022-08-29T05:27:55.050Z,22.70
2022-08-29T05:32:58.810Z,22.83
2022-08-29T05:38:07.133Z,22.87
2022-08-29T05:43:12.301Z,23.12
2022-08-29T05:48:17.418Z,23.08
2022-08-29T05:53:20.327Z,23.08
2022-08-29T05:58:23.206Z,23.20
2022-08-29T06:03:25.955Z,23.54
2022-08-29T06:08:28.700Z,24.04
2022-08-29T06:13:31.462Z,24.32
2022-08-29T06:18:35.299Z,24.26
2022-08-29T06:23:40.676Z,24.71
2022-08-29T06:28:46.248Z,24.86
2022-08-29T06:33:53.800Z,25.06
2022-08-29T06:39:01.228Z,25.21
2022-08-29T06:44:04.710Z,25.34
2022-08-29T06:49:10.515Z,25.69
2022-08-29T06:54:13.845Z,26.08
2022-08-29T06:59:16.915Z,26.21
2022-08-29T07:04:20.654Z,26.54
2022-08-29T07:09:24.017Z,26.82
2022-08-29T07:14:26.693Z,26.83
2022-08-29T07:19:29.390Z,26.38
2022-08-29T07:24:32.633Z,26.15
2022-08-29T07:29:35.506Z,26.42
2022-08-29T07:34:38.173Z,26.67
2022-08-29T07:39:40.852Z,26.75
2022-08-29T07:44:43.559Z,26.75
2022-08-29T07:49:46.186Z,26.72
2022-08-29T07:54:48.964Z,26.90
2022-08-29T07:59:52.171Z,27.09
2022-08-29T08:04:54.812Z,27.09
2022-08-29T08:09:57.542Z,26.79
2022-08-29T08:15:00.958Z,26.15
2022-08-29T08:20:07.392Z,26.43
2022-08-29T08:25:10.134Z,26.83
2022-08-29T08:30:13.835Z,26.61
2022-08-29T08:35:16.748Z,26.62
2022-08-29T08:40:26.801Z,26.47
2022-08-29T08:45:42.962Z,26.75
2022-08-29T08:50:54.415Z,27.22
2022-08-29T08:56:00.140Z,27.37
2022-08-29T09:01:30.278Z,27.03
2022-08-29T09:06:51.474Z,26.95
2022-08-29T09:12:04.957Z,27.18
2022-08-29T09:17:13.729Z,27.37
2022-08-29T09:22:23.926Z,27.66
2022-08-29T09:27:29.409Z,27.68
2022-08-29T09:32:32.604Z,27.36
2022-08-29T09:37:35.521Z,26.97
2022-08-29T09:42:42.115Z,26.50
2022-08-29T09:47:45.584Z,26.37
2022-08-29T09:52:58.927Z,27.11
2022-08-29T09:58:08.750Z,27.92
2022-08-29T10:03:22.369Z,28.19
2022-08-29T10:08:36.338Z,28.36
2022-08-29T10:13:43.471Z,28.88
2022-08-29T10:19:02.949Z,28.77
2022-08-29T10:24:24.420Z,28.26
2022-08-29T10:29:40.321Z,28.34
2022-08-29T10:35:11.805Z,28.15
2022-08-29T10:40:25.607Z,28.00
2022-08-29T10:45:45.509Z,27.70
2022-08-29T10:50:57.299Z,27.85
2022-08-29T10:56:07.002Z,27.86
2022-08-29T11:01:33.348Z,27.72
2022-08-29T11:06:48.890Z,27.23
2022-08-29T11:12:18.083Z,27.09
2022-08-29T11:17:26.740Z,26.94
2022-08-29T11:22:41.294Z,26.71
2022-08-29T11:27:54.129Z,26.21
2022-08-29T11:33:12.652Z,26.76
2022-08-29T11:39:01.811Z,26.93
2022-08-29T11:44:30.672Z,26.79
2022-08-29T11:49:37.830Z,26.92
2022-08-29T11:54:43.509Z,26.97
2022-08-29T11:59:49.344Z,26.80
2022-08-29T12:05:00.944Z,26.68
2022-08-29T12:10:07.987Z,26.55
2022-08-29T12:15:50.351Z,25.83
2022-08-29T12:20:55.779Z,25.81
2022-08-29T12:26:21.941Z,25.57
2022-08-29T12:32:22.732Z,25.69
2022-08-29T12:37:41.380Z,25.85
2022-08-29T12:43:22.704Z,25.41
2022-08-29T12:48:53.415Z,25.22
2022-08-29T12:54:00.509Z,25.43
2022-08-29T12:59:05.106Z,25.47
2022-08-29T13:04:10.551Z,25.19
2022-08-29T13:09:17.688Z,25.02
2022-08-29T13:14:21.454Z,25.05
2022-08-29T13:19:25.013Z,25.13
2022-08-29T13:24:27.741Z,24.80
2022-08-29T13:29:42.749Z,24.50
2022-08-29T13:35:03.609Z,24.34
2022-08-29T13:40:41.982Z,24.16
2022-08-29T13:45:45.611Z,24.09
2022-08-29T13:50:48.343Z,24.38
2022-08-29T13:55:51.286Z,24.27
2022-08-29T14:00:55.002Z,24.06
2022-08-29T14:05:58.534Z,23.89
2022-08-29T14:11:01.349Z,23.64
2022-08-29T14:16:04.521Z,23.54
2022-08-29T14:21:07.441Z,23.35
2022-08-29T14:26:10.279Z,23.18
2022-08-29T14:31:13.053Z,23.04
2022-08-29T14:36:15.691Z,22.94
2022-08-29T14:41:19.482Z,22.79
2022-08-29T14:46:22.377Z,22.78
2022-08-29T14:51:25.605Z,22.71
2022-08-29T14:56:47.592Z,22.63
2022-08-29T15:01:54.519Z,22.59
2022-08-29T15:06:57.974Z,22.60
2022-08-29T15:12:00.756Z,22.37
2022-08-29T15:17:05.357Z,22.56
2022-08-29T15:22:08.325Z,22.51
2022-08-29T15:27:12.092Z,22.53
2022-08-29T15:32:15.094Z,22.37
2022-08-29T15:37:18.048Z,22.30
2022-08-29T15:42:24.289Z,22.11
2022-08-29T15:47:28.188Z,21.93
2022-08-29T15:52:31.260Z,21.84
2022-08-29T15:57:34.704Z,21.75
2022-08-29T16:02:54.884Z,21.67
2022-08-29T16:07:57.722Z,21.43
2022-08-29T16:13:00.754Z,21.54
2022-08-29T16:18:04.265Z,21.45
2022-08-29T16:23:07.408Z,21.28
2022-08-29T16:28:10.346Z,21.16
2022-08-29T16:33:13.295Z,21.19
2022-08-29T16:38:16.297Z,21.09
2022-08-29T16:43:19.393Z,20.92
2022-08-29T16:48:22.826Z,20.79
2022-08-29T16:53:26.056Z,20.84
2022-08-29T16:58:47.404Z,20.74
2022-08-29T17:03:50.134Z,20.76
2022-08-29T17:08:52.725Z,20.77
2022-08-29T17:13:56.160Z,20.74
2022-08-29T17:18:58.965Z,20.68
2022-08-29T17:24:02.486Z,20.79
2022-08-29T17:29:06.707Z,20.78
2022-08-29T17:34:09.814Z,20.86
2022-08-29T17:39:13.079Z,20.92
2022-08-29T17:44:15.902Z,20.86
2022-08-29T17:49:18.608Z,20.80
2022-08-29T17:54:23.298Z,20.70
2022-08-29T17:59:31.428Z,20.76
2022-08-29T18:04:34.071Z,20.56
2022-08-29T18:09:36.867Z,20.61
2022-08-29T18:14:39.739Z,20.45
2022-08-29T18:19:42.416Z,20.62
2022-08-29T18:24:47.476Z,20.50
2022-08-29T18:29:50.136Z,20.44
2022-08-29T18:34:57.561Z,20.48
2022-08-29T18:40:05.509Z,20.28
2022-08-29T18:45:09.846Z,20.34
2022-08-29T18:50:30.959Z,20.34
2022-08-29T18:55:34.289Z,20.27
2022-08-29T19:00:38.064Z,20.04
2022-08-29T19:05:47.863Z,20.12
2022-08-29T19:10:55.470Z,20.08
2022-08-29T19:15:59.896Z,19.94
2022-08-29T19:21:03.329Z,20.01
2022-08-29T19:26:09.359Z,20.00
2022-08-29T19:31:14.517Z,20.00
2022-08-29T19:36:19.060Z,19.98
2022-08-29T19:41:22.310Z,19.95
2022-08-29T19:46:25.100Z,20.01
2022-08-29T19:51:32.709Z,19.92
2022-08-29T19:56:35.690Z,19.86
2022-08-29T20:01:40.486Z,19.71
2022-08-29T20:06:44.002Z,19.78
2022-08-29T20:11:48.043Z,19.80
2022-08-29T20:16:50.699Z,19.75
2022-08-29T20:21:53.374Z,19.80
2022-08-29T20:26:56.497Z,19.72
2022-08-29T20:32:02.078Z,19.68
2022-08-29T20:37:11.069Z,19.71
2022-08-29T20:42:16.292Z,19.72
2022-08-29T20:47:20.252Z,19.61
2022-08-29T20:52:24.888Z,19.63
2022-08-29T20:57:27.803Z,19.72
2022-08-29T21:02:48.906Z,19.77
2022-08-29T21:07:51.608Z,19.80
2022-08-29T21:12:54.394Z,19.74
2022-08-29T21:17:57.366Z,19.56
2022-08-29T21:23:03.054Z,19.56
2022-08-29T21:28:07.159Z,19.59
2022-08-29T21:33:10.496Z,19.53
2022-08-29T21:38:13.474Z,19.45
2022-08-29T21:43:16.374Z,19.58
2022-08-29T21:48:19.249Z,19.46
2022-08-29T21:53:22.891Z,19.54
2022-08-29T21:58:25.661Z,19.53
2022-08-29T22:03:28.366Z,19.55
2022-08-29T22:08:32.333Z,19.23
2022-08-29T22:13:34.941Z,19.47
2022-08-29T22:18:37.622Z,19.46
2022-08-29T22:23:40.306Z,19.45
2022-08-29T22:28:45.282Z,19.39
2022-08-29T22:33:48.469Z,19.46
2022-08-29T22:38:56.613Z,19.35
2022-08-29T22:49:25.498Z,19.39
2022-08-29T22:54:35.865Z,19.44
2022-08-29T22:59:39.427Z,19.41
2022-08-29T23:04:42.294Z,19.32
2022-08-29T23:09:45.573Z,19.30
2022-08-29T23:14:48.387Z,19.22
2022-08-29T23:19:51.149Z,19.18
2022-08-29T23:24:58.543Z,19.21
2022-08-29T23:30:02.080Z,19.08
2022-08-29T23:35:07.401Z,19.01
2022-08-29T23:40:10.370Z,18.99
2022-08-29T23:45:13.342Z,18.89
2022-08-29T23:50:16.493Z,18.85
2022-08-29T23:55:19.222Z,18.90
